Time;durP1;ratioP1;P1;durP2;ratioP2;P2;SDS_P1;SDS_P2;PMS_P1;PMS_P2;Temp;Humidity;BMP_temperature;BMP_pressure;BME280_temperature;BME280_humidity;BME280_pressure;Samples;Min_cycle;Max_cycle;Signal;HPM_P1;HPM_P2
2022/08/21 00:01:23;;;;;;;5.27;3.10;;;19.80;99.90;;;;;;5086702;28;20414;-65
2022/08/21 00:03:49;;;;;;;5.38;3.05;;;19.70;99.90;;;;;;5069245;28;20433;-66
2022/08/21 00:06:15;;;;;;;6.67;3.40;;;19.70;99.90;;;;;;5066579;28;20888;-66
2022/08/21 00:08:40;;;;;;;6.13;3.40;;;19.70;99.90;;;;;;5067036;28;20375;-67
2022/08/21 00:11:06;;;;;;;5.72;3.60;;;19.70;99.90;;;;;;5067231;28;20802;-66
2022/08/21 00:13:32;;;;;;;4.85;3.22;;;19.70;99.90;;;;;;5068915;28;20635;-66
2022/08/21 00:15:58;;;;;;;6.20;3.17;;;19.70;99.90;;;;;;5070094;28;20393;-65
2022/08/21 00:18:24;;;;;;;7.28;3.30;;;19.70;99.90;;;;;;5087591;28;20421;-66
2022/08/21 00:20:50;;;;;;;7.63;3.50;;;19.60;99.90;;;;;;5069264;28;20489;-66
2022/08/21 00:23:18;;;;;;;7.80;3.50;;;19.50;99.90;;;;;;5068445;28;20954;-65
2022/08/21 00:25:44;;;;;;;7.68;3.25;;;19.60;99.90;;;;;;5068456;28;20492;-66
2022/08/21 00:28:11;;;;;;;5.68;3.20;;;19.50;99.90;;;;;;5067771;28;20805;-66
2022/08/21 00:30:37;;;;;;;5.28;3.13;;;19.40;99.90;;;;;;5066968;28;20802;-66
2022/08/21 00:33:06;;;;;;;11.23;3.40;;;19.40;99.90;;;;;;5067705;28;20390;-66
2022/08/21 00:35:35;;;;;;;4.65;3.30;;;19.40;99.90;;;;;;5085304;28;20751;-66
2022/08/21 00:38:01;;;;;;;6.90;3.45;;;19.40;99.90;;;;;;5066491;28;20797;-65
2022/08/21 00:40:41;;;;;;;5.18;3.22;;;19.30;99.90;;;;;;5088544;28;20479;-66
2022/08/21 00:43:11;;;;;;;6.47;3.50;;;19.20;99.90;;;;;;5089363;28;20669;-66
2022/08/21 00:45:37;;;;;;;8.77;4.00;;;19.20;99.90;;;;;;5070050;28;20389;-65
2022/08/21 00:48:03;;;;;;;7.30;3.80;;;19.10;99.90;;;;;;5072899;28;20658;-65
2022/08/21 00:50:32;;;;;;;5.60;3.37;;;19.00;99.90;;;;;;5073883;28;20381;-65
2022/08/21 00:53:00;;;;;;;7.35;3.78;;;19.00;99.90;;;;;;5073929;28;20498;-65
2022/08/21 00:55:28;;;;;;;5.63;3.47;;;19.00;99.90;;;;;;5074562;28;20408;-65
2022/08/21 00:57:56;;;;;;;6.30;3.70;;;19.00;99.90;;;;;;5092719;28;20389;-65
2022/08/21 01:00:30;;;;;;;6.57;3.40;;;19.00;99.90;;;;;;5093560;28;20412;-65
2022/08/21 01:02:57;;;;;;;6.00;3.47;;;19.00;99.90;;;;;;5075480;28;20488;-65
2022/08/21 01:05:23;;;;;;;5.35;3.15;;;19.00;99.90;;;;;;5073388;28;20842;-65
2022/08/21 01:07:49;;;;;;;5.43;3.50;;;19.00;99.90;;;;;;5072366;28;20630;-65
2022/08/21 01:10:16;;;;;;;5.15;3.60;;;18.90;99.90;;;;;;5073825;28;20450;-66
2022/08/21 01:12:42;;;;;;;7.72;4.00;;;18.90;99.90;;;;;;5073909;28;20410;-65
2022/08/21 01:15:09;;;;;;;6.70;3.53;;;18.90;99.90;;;;;;5074222;28;20393;-66
2022/08/21 01:17:35;;;;;;;5.65;3.50;;;18.70;99.90;;;;;;5072733;28;20460;-65
2022/08/21 01:20:06;;;;;;;6.05;3.55;;;18.80;99.90;;;;;;5073036;28;20442;-66
2022/08/21 01:22:32;;;;;;;7.38;3.85;;;18.70;99.90;;;;;;5089567;28;20509;-67
2022/08/21 01:24:58;;;;;;;5.75;3.40;;;18.70;99.90;;;;;;5087904;28;20465;-66
2022/08/21 01:27:23;;;;;;;7.53;3.80;;;18.60;99.90;;;;;;5071947;28;20396;-66
2022/08/21 01:30:03;;;;;;;6.78;3.83;;;18.70;99.90;;;;;;5090871;28;20393;-66
2022/08/21 01:32:28;;;;;;;5.05;3.50;;;18.60;99.90;;;;;;5071381;28;20455;-66
2022/08/21 01:34:54;;;;;;;5.97;3.67;;;18.60;99.90;;;;;;5069814;28;20386;-65
2022/08/21 01:37:21;;;;;;;7.15;3.88;;;18.60;99.90;;;;;;5087488;28;20401;-65
2022/08/21 01:39:47;;;;;;;5.15;3.33;;;18.50;99.90;;;;;;5070848;28;20405;-65
2022/08/21 01:42:14;;;;;;;6.32;3.60;;;18.50;99.90;;;;;;5071874;28;20453;-65
2022/08/21 01:44:40;;;;;;;5.63;3.53;;;18.50;99.90;;;;;;5073845;28;20393;-65
2022/08/21 01:47:09;;;;;;;8.35;3.75;;;18.60;99.90;;;;;;5073234;28;20374;-65
2022/08/21 01:49:36;;;;;;;6.30;3.50;;;18.60;99.90;;;;;;5055042;28;20385;-65
2022/08/21 01:52:02;;;;;;;6.43;3.83;;;18.40;99.90;;;;;;5090672;28;20416;-65
2022/08/21 01:54:29;;;;;;;5.38;3.50;;;18.40;99.90;;;;;;5089936;28;20501;-65
2022/08/21 01:56:56;;;;;;;5.53;3.10;;;18.40;99.90;;;;;;5090235;28;20416;-65
2022/08/21 01:59:23;;;;;;;7.80;3.35;;;18.40;99.90;;;;;;5072515;28;20453;-65
2022/08/21 02:01:49;;;;;;;5.15;3.17;;;18.50;99.90;;;;;;5074266;28;20374;-64
2022/08/21 02:04:15;;;;;;;5.73;3.60;;;18.50;99.90;;;;;;5074288;28;20981;-65
2022/08/21 02:06:42;;;;;;;5.87;3.73;;;18.50;99.90;;;;;;5075041;28;20421;-65
2022/08/21 02:09:10;;;;;;;6.35;4.03;;;18.50;99.90;;;;;;5075856;28;20390;-65
2022/08/21 02:11:40;;;;;;;6.65;4.00;;;18.40;99.90;;;;;;5092346;28;20769;-65
2022/08/21 02:14:09;;;;;;;6.55;3.88;;;18.40;99.90;;;;;;5091026;28;20395;-64
2022/08/21 02:16:34;;;;;;;7.45;4.10;;;18.40;99.90;;;;;;5089694;28;20482;-65
2022/08/21 02:19:00;;;;;;;7.50;4.03;;;18.40;99.90;;;;;;5071985;28;20447;-65
2022/08/21 02:21:26;;;;;;;5.18;3.70;;;18.40;99.90;;;;;;5071351;28;20398;-65
2022/08/21 02:23:52;;;;;;;6.10;3.87;;;18.40;99.90;;;;;;5072421;28;20406;-65
2022/08/21 02:26:17;;;;;;;6.33;3.37;;;18.40;99.90;;;;;;5088992;28;20706;-64
2022/08/21 02:28:43;;;;;;;6.33;3.80;;;18.40;99.90;;;;;;5074321;28;20390;-64
2022/08/21 02:31:09;;;;;;;6.97;3.60;;;18.30;99.90;;;;;;5074638;28;20429;-64
2022/08/21 02:33:35;;;;;;;6.77;3.63;;;18.20;99.90;;;;;;5075725;28;20508;-64
2022/08/21 02:36:01;;;;;;;8.45;3.83;;;18.30;99.90;;;;;;5075162;28;20386;-64
2022/08/21 02:38:32;;;;;;;6.38;3.42;;;18.30;99.90;;;;;;5073601;28;20674;-64
2022/08/21 02:40:58;;;;;;;5.40;3.30;;;18.30;99.90;;;;;;5072023;28;20486;-65
2022/08/21 02:43:26;;;;;;;6.63;3.77;;;18.30;99.90;;;;;;5076531;28;20378;-64
2022/08/21 02:45:53;;;;;;;6.60;3.42;;;18.30;99.90;;;;;;5093290;28;20511;-66
2022/08/21 02:48:25;;;;;;;6.68;3.40;;;18.20;99.90;;;;;;5074544;28;20382;-64
2022/08/21 02:51:10;;;;;;;7.40;4.00;;;18.20;99.90;;;;;;5073282;28;21055;-65
2022/08/21 02:53:36;;;;;;;6.40;3.67;;;18.10;99.90;;;;;;5089771;28;20653;-64
2022/08/21 02:56:05;;;;;;;5.30;3.67;;;18.20;99.90;;;;;;5073633;28;20385;-64
2022/08/21 02:58:35;;;;;;;5.47;3.60;;;18.20;99.90;;;;;;5073676;28;20381;-65
2022/08/21 03:01:01;;;;;;;4.95;3.33;;;18.20;99.90;;;;;;5073428;28;20798;-65
2022/08/21 03:03:27;;;;;;;5.68;3.22;;;18.10;99.90;;;;;;5072254;28;20414;-64
2022/08/21 03:05:54;;;;;;;5.25;3.15;;;18.10;99.90;;;;;;5091430;28;20831;-65
2022/08/21 03:08:21;;;;;;;6.57;3.58;;;18.10;99.90;;;;;;5074303;28;20483;-65
2022/08/21 03:10:49;;;;;;;7.38;3.78;;;18.00;99.90;;;;;;5071752;28;20396;-65
2022/08/21 03:13:16;;;;;;;5.47;3.53;;;18.00;99.90;;;;;;5071996;28;20471;-65
2022/08/21 03:15:42;;;;;;;5.13;3.42;;;18.00;99.90;;;;;;5073578;28;20389;-64
2022/08/21 03:18:09;;;;;;;5.88;3.50;;;18.00;99.90;;;;;;5073730;28;20533;-65
2022/08/21 03:20:35;;;;;;;6.47;3.60;;;18.00;99.90;;;;;;5073457;28;20406;-64
2022/08/21 03:23:03;;;;;;;8.38;3.72;;;18.00;99.90;;;;;;5090629;28;20385;-64
2022/08/21 03:25:33;;;;;;;6.32;3.40;;;17.80;99.90;;;;;;5070819;28;20435;-65
2022/08/21 03:28:03;;;;;;;6.47;3.30;;;17.80;99.90;;;;;;5073192;28;20382;-65
2022/08/21 03:30:30;;;;;;;7.93;3.37;;;17.80;99.90;;;;;;5072960;28;20400;-65
2022/08/21 03:32:58;;;;;;;4.78;3.08;;;17.80;99.90;;;;;;5074111;28;20388;-65
2022/08/21 03:35:24;;;;;;;7.55;3.17;;;17.80;99.90;;;;;;5070192;28;20494;-65
2022/08/21 03:37:50;;;;;;;6.30;3.65;;;17.80;99.90;;;;;;5069160;28;20389;-64
2022/08/21 03:40:17;;;;;;;5.90;3.33;;;17.80;99.90;;;;;;5070770;28;20681;-64
2022/08/21 03:42:46;;;;;;;7.30;3.60;;;17.80;99.90;;;;;;5088344;28;20623;-64
2022/08/21 03:45:14;;;;;;;5.22;3.20;;;17.70;99.90;;;;;;5072231;28;20397;-65
2022/08/21 03:47:51;;;;;;;5.78;3.30;;;17.70;99.90;;;;;;5073700;28;20835;-64
2022/08/21 03:50:17;;;;;;;5.53;3.47;;;17.70;99.90;;;;;;5073258;28;20390;-65
2022/08/21 03:52:43;;;;;;;6.00;3.40;;;17.70;99.90;;;;;;5090206;28;20459;-64
2022/08/21 03:55:08;;;;;;;5.88;3.42;;;17.70;99.90;;;;;;5070282;28;20805;-64
2022/08/21 03:57:34;;;;;;;5.60;3.07;;;17.60;99.90;;;;;;5071488;28;20401;-63
2022/08/21 03:59:59;;;;;;;5.63;3.10;;;17.60;99.90;;;;;;5069016;28;20651;-63
2022/08/21 04:02:25;;;;;;;5.57;3.30;;;17.60;99.90;;;;;;5067370;28;20655;-64
2022/08/21 04:04:51;;;;;;;4.50;2.73;;;17.60;99.90;;;;;;5066245;28;20809;-65
2022/08/21 04:07:17;;;;;;;5.10;2.63;;;17.60;99.90;;;;;;5066498;28;20418;-64
2022/08/21 04:09:43;;;;;;;5.15;2.90;;;17.60;99.90;;;;;;5085180;28;20386;-64
2022/08/21 04:12:09;;;;;;;4.78;2.85;;;17.50;99.90;;;;;;5064820;28;20484;-64
2022/08/21 04:14:34;;;;;;;5.20;3.00;;;17.50;99.90;;;;;;5065897;28;20478;-65
2022/08/21 04:17:00;;;;;;;7.32;3.58;;;17.50;99.90;;;;;;5082772;28;20795;-64
2022/08/21 04:19:26;;;;;;;4.67;2.83;;;17.50;99.90;;;;;;5065383;28;20485;-64
2022/08/21 04:21:51;;;;;;;4.38;3.10;;;17.50;99.90;;;;;;5084181;28;20603;-64
2022/08/21 04:24:17;;;;;;;5.20;2.85;;;17.50;99.90;;;;;;5083625;28;20465;-64
2022/08/21 04:26:43;;;;;;;4.75;2.95;;;17.50;99.90;;;;;;5066981;28;20480;-65
2022/08/21 04:29:08;;;;;;;4.77;2.73;;;17.50;99.90;;;;;;5067354;28;20404;-65
2022/08/21 04:31:36;;;;;;;5.32;3.08;;;17.40;99.90;;;;;;5089814;28;20711;-65
2022/08/21 04:34:04;;;;;;;6.05;3.17;;;17.40;99.90;;;;;;5072161;28;20378;-65
2022/08/21 04:36:30;;;;;;;5.68;2.92;;;17.40;99.90;;;;;;5070896;28;20412;-65
2022/08/21 04:38:56;;;;;;;4.57;2.90;;;17.40;99.90;;;;;;5071203;28;20382;-65
2022/08/21 04:41:24;;;;;;;5.27;2.97;;;17.40;99.90;;;;;;5070698;28;20863;-65
2022/08/21 04:43:49;;;;;;;5.05;3.10;;;17.40;99.90;;;;;;5069086;28;20447;-65
2022/08/21 04:46:15;;;;;;;4.10;2.80;;;17.40;99.90;;;;;;5067989;28;20382;-65
2022/08/21 04:48:41;;;;;;;5.10;3.00;;;17.40;99.90;;;;;;5083643;28;20667;-65
2022/08/21 04:51:34;;;;;;;5.60;3.10;;;17.50;99.90;;;;;;5082885;28;20382;-65
2022/08/21 04:54:10;;;;;;;5.07;3.25;;;17.50;99.90;;;;;;5061589;28;20758;-66
2022/08/21 04:56:41;;;;;;;4.18;2.88;;;17.50;99.90;;;;;;5062252;28;20382;-65
2022/08/21 04:59:13;;;;;;;6.35;3.00;;;17.50;99.90;;;;;;5063985;28;20446;-65
2022/08/21 05:01:40;;;;;;;5.45;3.08;;;17.50;99.90;;;;;;5064160;28;20664;-65
2022/08/21 05:04:09;;;;;;;5.90;3.27;;;17.50;99.90;;;;;;5063800;28;20541;-65
2022/08/21 05:06:37;;;;;;;5.85;3.20;;;17.50;99.90;;;;;;5080952;28;20424;-64
2022/08/21 05:09:04;;;;;;;5.75;2.85;;;17.40;99.90;;;;;;5062891;28;20381;-64
2022/08/21 05:11:31;;;;;;;5.40;2.80;;;17.50;99.90;;;;;;5081238;28;20382;-65
2022/08/21 05:13:57;;;;;;;4.07;3.00;;;17.50;99.90;;;;;;5082139;28;20382;-65
2022/08/21 05:16:22;;;;;;;5.88;3.10;;;17.50;99.90;;;;;;5065188;28;20455;-64
2022/08/21 05:18:48;;;;;;;5.10;2.92;;;17.50;99.90;;;;;;5067598;28;20445;-65
2022/08/21 05:21:14;;;;;;;5.03;2.80;;;17.40;99.90;;;;;;5085075;28;20815;-65
2022/08/21 05:23:39;;;;;;;4.90;2.78;;;17.40;99.90;;;;;;5067874;28;20385;-65
2022/08/21 05:26:05;;;;;;;3.90;2.63;;;17.50;99.90;;;;;;5071344;28;20386;-64
2022/08/21 05:28:31;;;;;;;4.13;2.60;;;17.50;99.90;;;;;;5074020;28;20378;-65
2022/08/21 05:30:57;;;;;;;4.63;2.70;;;17.50;99.90;;;;;;5073405;28;20500;-64
2022/08/21 05:33:23;;;;;;;5.15;2.70;;;17.50;99.90;;;;;;5072507;28;20420;-64
2022/08/21 05:35:55;;;;;;;5.37;2.73;;;17.50;99.90;;;;;;5072475;28;20585;-65
2022/08/21 05:38:21;;;;;;;3.57;2.70;;;17.60;99.90;;;;;;5070529;28;20425;-67
2022/08/21 05:40:47;;;;;;;3.60;2.53;;;17.50;99.90;;;;;;5087918;28;20848;-64
2022/08/21 05:43:13;;;;;;;3.23;2.43;;;17.60;99.90;;;;;;5089279;28;20390;-66
2022/08/21 05:45:38;;;;;;;5.37;2.93;;;17.60;99.90;;;;;;5072294;28;20392;-65
2022/08/21 05:48:23;;;;;;;4.53;2.67;;;17.60;99.90;;;;;;5072022;28;20390;-64
2022/08/21 05:50:51;;;;;;;4.85;2.45;;;17.70;99.90;;;;;;5070664;28;20507;-65
2022/08/21 05:53:18;;;;;;;3.72;2.60;;;17.60;99.90;;;;;;5088137;28;20440;-64
2022/08/21 05:55:44;;;;;;;6.13;2.75;;;17.60;99.90;;;;;;5069003;28;21014;-65
2022/08/21 05:58:11;;;;;;;4.22;2.30;;;17.60;99.90;;;;;;5086472;28;20766;-65
2022/08/21 06:00:36;;;;;;;6.05;3.00;;;17.60;99.90;;;;;;5066899;28;20402;-65
2022/08/21 06:03:02;;;;;;;3.42;2.15;;;17.40;99.90;;;;;;5069226;28;20391;-65
2022/08/21 06:05:27;;;;;;;2.97;2.10;;;17.40;99.90;;;;;;5071012;28;20659;-65
2022/08/21 06:07:53;;;;;;;4.17;2.17;;;17.50;99.90;;;;;;5070794;28;20418;-65
2022/08/21 06:10:19;;;;;;;4.13;2.58;;;17.60;99.90;;;;;;5070495;28;20689;-64
2022/08/21 06:12:44;;;;;;;4.65;2.15;;;17.60;99.90;;;;;;5070601;28;20383;-65
2022/08/21 06:15:10;;;;;;;4.67;2.43;;;17.70;99.90;;;;;;5071934;28;20736;-65
2022/08/21 06:17:36;;;;;;;5.45;2.40;;;17.60;99.90;;;;;;5070981;28;20707;-65
2022/08/21 06:20:04;;;;;;;3.47;2.13;;;17.60;99.90;;;;;;5069292;28;20666;-65
2022/08/21 06:22:29;;;;;;;4.05;2.15;;;17.60;99.90;;;;;;5068383;28;20673;-65
2022/08/21 06:24:55;;;;;;;3.73;2.60;;;17.70;99.90;;;;;;5086841;28;20855;-64
2022/08/21 06:27:20;;;;;;;4.40;2.50;;;17.80;99.90;;;;;;5069127;28;20374;-64
2022/08/21 06:29:46;;;;;;;2.80;1.90;;;17.80;99.90;;;;;;5084504;28;20483;-65
2022/08/21 06:32:14;;;;;;;3.50;1.90;;;17.80;99.90;;;;;;5065971;28;20389;-65
2022/08/21 06:34:41;;;;;;;2.57;1.77;;;17.80;99.90;;;;;;5065275;28;20488;-66
2022/08/21 06:37:07;;;;;;;2.80;2.00;;;17.90;99.90;;;;;;5062701;28;20459;-67
2022/08/21 06:39:33;;;;;;;2.83;1.83;;;18.00;99.90;;;;;;5063711;28;20413;-65
2022/08/21 06:41:59;;;;;;;3.70;2.00;;;18.00;99.90;;;;;;5061972;28;20762;-65
2022/08/21 06:44:25;;;;;;;3.20;1.90;;;18.10;99.90;;;;;;5080915;28;20388;-65
2022/08/21 06:46:51;;;;;;;3.90;2.00;;;18.10;99.90;;;;;;5081805;28;20397;-65
2022/08/21 06:49:18;;;;;;;3.10;1.90;;;18.10;99.90;;;;;;5082023;28;20432;-65
2022/08/21 06:51:43;;;;;;;4.30;2.00;;;18.20;99.90;;;;;;5063421;28;20628;-65
2022/08/21 06:54:09;;;;;;;3.93;2.10;;;18.20;99.90;;;;;;5064743;28;20386;-66
2022/08/21 06:56:37;;;;;;;3.45;2.10;;;18.20;99.90;;;;;;5083070;28;20693;-65
2022/08/21 06:59:04;;;;;;;3.75;1.90;;;18.30;99.90;;;;;;5063107;28;20880;-65
2022/08/21 07:01:29;;;;;;;4.40;2.20;;;18.40;99.90;;;;;;5082954;28;20844;-65
2022/08/21 07:03:55;;;;;;;4.17;2.00;;;18.30;99.90;;;;;;5064435;28;20408;-65
2022/08/21 07:06:21;;;;;;;3.13;2.13;;;18.30;99.90;;;;;;5081286;28;20378;-65
2022/08/21 07:08:46;;;;;;;4.20;1.70;;;18.30;99.90;;;;;;5062128;28;20421;-65
2022/08/21 07:11:19;;;;;;;3.20;1.87;;;18.40;99.90;;;;;;5063900;28;20516;-65
2022/08/21 07:13:45;;;;;;;2.92;1.75;;;18.40;99.90;;;;;;5062626;28;20573;-65
2022/08/21 07:16:11;;;;;;;3.97;1.70;;;18.50;99.90;;;;;;5060634;28;20426;-65
2022/08/21 07:18:36;;;;;;;6.32;2.22;;;18.60;99.90;;;;;;5063014;28;20685;-67
2022/08/21 07:21:07;;;;;;;3.83;2.07;;;18.60;99.90;;;;;;5062227;28;20434;-65
2022/08/21 07:23:37;;;;;;;4.57;2.30;;;18.50;99.90;;;;;;5063971;28;20393;-65
2022/08/21 07:26:03;;;;;;;3.17;1.77;;;18.30;99.90;;;;;;5063676;28;20678;-65
2022/08/21 07:28:30;;;;;;;3.63;1.80;;;18.40;99.90;;;;;;5065479;28;20793;-65
2022/08/21 07:30:58;;;;;;;3.60;2.10;;;18.50;99.90;;;;;;5065284;28;20566;-66
2022/08/21 07:33:26;;;;;;;3.83;1.95;;;18.50;99.90;;;;;;5064241;28;20604;-65
2022/08/21 07:35:52;;;;;;;3.70;1.92;;;18.50;99.90;;;;;;5081383;28;20382;-65
2022/08/21 07:38:18;;;;;;;2.80;1.65;;;18.60;99.90;;;;;;5048578;28;20401;-65
2022/08/21 07:40:45;;;;;;;4.55;2.03;;;18.70;99.90;;;;;;5082646;28;20402;-65
2022/08/21 07:43:11;;;;;;;4.63;2.03;;;18.70;99.90;;;;;;5062766;28;20374;-65
2022/08/21 07:45:37;;;;;;;3.78;1.85;;;18.80;99.90;;;;;;5061770;28;20643;-65
2022/08/21 07:48:03;;;;;;;2.63;1.73;;;18.90;99.90;;;;;;5062338;28;21010;-65
2022/08/21 07:50:29;;;;;;;2.90;1.58;;;19.00;99.90;;;;;;5065771;28;20406;-65
2022/08/21 07:52:55;;;;;;;5.77;2.10;;;19.10;99.90;;;;;;5065035;28;20745;-65
2022/08/21 07:55:21;;;;;;;5.57;2.00;;;19.00;99.90;;;;;;5063534;28;20737;-65
2022/08/21 07:57:47;;;;;;;5.25;2.20;;;18.90;99.90;;;;;;5081106;28;20672;-66
2022/08/21 08:00:16;;;;;;;4.83;1.90;;;18.70;99.90;;;;;;5062671;28;20961;-65
2022/08/21 08:02:45;;;;;;;6.43;2.50;;;18.80;99.90;;;;;;5063083;28;20899;-65
2022/08/21 08:05:11;;;;;;;4.50;1.92;;;18.90;99.90;;;;;;5062311;28;20763;-65
2022/08/21 08:07:37;;;;;;;5.55;2.03;;;18.90;99.90;;;;;;5081803;28;20423;-65
2022/08/21 08:10:06;;;;;;;4.53;2.00;;;18.90;99.90;;;;;;5060904;28;20502;-65
2022/08/21 08:12:36;;;;;;;5.47;2.00;;;19.00;99.90;;;;;;5060459;28;20388;-65
2022/08/21 08:15:05;;;;;;;4.60;2.05;;;19.00;99.90;;;;;;5061579;28;20719;-65
2022/08/21 08:17:32;;;;;;;4.50;1.95;;;19.10;99.90;;;;;;5062882;28;20389;-65
2022/08/21 08:19:57;;;;;;;5.78;1.92;;;19.10;99.90;;;;;;5063440;28;20398;-65
2022/08/21 08:22:23;;;;;;;6.47;2.22;;;19.10;99.90;;;;;;5065669;28;20813;-65
2022/08/21 08:24:51;;;;;;;4.38;2.00;;;19.20;99.90;;;;;;5081009;28;20401;-65
2022/08/21 08:27:17;;;;;;;3.63;1.83;;;19.20;99.90;;;;;;5064349;28;20408;-65
2022/08/21 08:29:44;;;;;;;5.10;2.10;;;19.30;99.90;;;;;;5064173;28;20401;-65
2022/08/21 08:32:09;;;;;;;4.30;2.38;;;19.50;99.90;;;;;;5062766;28;20647;-65
2022/08/21 08:34:38;;;;;;;6.47;2.40;;;19.50;99.90;;;;;;5065355;28;20671;-65
2022/08/21 08:37:06;;;;;;;5.67;2.10;;;19.60;99.90;;;;;;5061039;28;20404;-65
2022/08/21 08:39:32;;;;;;;6.05;2.10;;;19.80;99.90;;;;;;5058956;28;20413;-65
2022/08/21 08:42:29;;;;;;;4.03;1.80;;;19.90;99.90;;;;;;5077875;28;20398;-66
2022/08/21 08:45:02;;;;;;;5.28;2.00;;;19.90;99.90;;;;;;5048830;28;20577;-65
2022/08/21 08:47:29;;;;;;;5.80;2.20;;;20.00;99.90;;;;;;5058983;28;20417;-65
2022/08/21 08:50:21;;;;;;;5.85;2.35;;;19.90;99.90;;;;;;5077551;28;20457;-65
2022/08/21 08:52:57;;;;;;;7.47;2.35;;;20.10;99.90;;;;;;5080795;28;20401;-66
2022/08/21 08:55:35;;;;;;;6.63;2.40;;;20.20;99.90;;;;;;5062557;28;20382;-65
2022/08/21 08:58:02;;;;;;;4.82;2.42;;;20.20;99.90;;;;;;5080605;28;20759;-64
2022/08/21 09:00:28;;;;;;;5.37;2.33;;;20.30;99.90;;;;;;5062906;28;20547;-64
2022/08/21 09:02:56;;;;;;;7.10;2.28;;;20.20;99.90;;;;;;5065478;28;20811;-64
2022/08/21 09:05:49;;;;;;;6.70;2.40;;;20.40;99.90;;;;;;5065832;28;20562;-64
2022/08/21 09:08:56;;;;;;;6.83;2.60;;;20.40;99.90;;;;;;5055755;28;20417;-64
2022/08/21 09:11:57;;;;;;;8.03;2.77;;;20.60;99.90;;;;;;5047785;28;20379;-65
2022/08/21 09:14:45;;;;;;;5.60;2.47;;;20.70;99.90;;;;;;5052146;28;20390;-64
2022/08/21 09:17:21;;;;;;;6.50;2.30;;;20.80;99.90;;;;;;5065195;28;20420;-64
2022/08/21 09:19:57;;;;;;;6.97;2.47;;;20.70;99.90;;;;;;5064415;28;20394;-64
2022/08/21 09:22:42;;;;;;;7.30;2.55;;;20.70;99.90;;;;;;5066207;28;20992;-64
2022/08/21 09:25:18;;;;;;;9.18;2.47;;;20.90;99.90;;;;;;5067228;28;20389;-64
2022/08/21 09:27:44;;;;;;;8.02;2.55;;;20.90;99.90;;;;;;5066205;28;20378;-64
2022/08/21 09:30:10;;;;;;;8.33;2.53;;;21.00;99.90;;;;;;5064962;28;20390;-64
2022/08/21 09:32:38;;;;;;;7.20;2.60;;;21.00;99.90;;;;;;5066307;28;20482;-64
2022/08/21 09:35:17;;;;;;;9.48;2.80;;;20.90;99.90;;;;;;5064854;28;20466;-64
2022/08/21 09:38:01;;;;;;;6.85;2.65;;;21.00;99.90;;;;;;5062303;28;20443;-64
2022/08/21 09:40:35;;;;;;;8.32;2.80;;;21.00;99.90;;;;;;5060096;28;20698;-64
2022/08/21 09:43:17;;;;;;;8.35;2.80;;;21.00;99.90;;;;;;5079278;28;20374;-64
2022/08/21 09:45:45;;;;;;;5.28;2.13;;;21.10;99.90;;;;;;5063823;28;20574;-64
2022/08/21 09:48:21;;;;;;;5.15;2.65;;;21.10;99.90;;;;;;5062454;28;20386;-64
2022/08/21 09:50:48;;;;;;;6.67;2.40;;;21.20;99.90;;;;;;5063298;28;20399;-64
2022/08/21 09:53:25;;;;;;;8.67;2.63;;;21.10;99.90;;;;;;5067580;28;20947;-64
2022/08/21 09:58:41;;;;;;;8.32;2.85;;;21.20;99.90;;;;;;5084695;28;20459;-64
2022/08/21 10:01:17;;;;;;;6.70;2.70;;;21.40;99.90;;;;;;5049280;28;20416;-65
2022/08/21 10:03:44;;;;;;;7.72;2.90;;;21.50;99.90;;;;;;5064756;28;20374;-64
2022/08/21 10:06:20;;;;;;;5.50;2.27;;;21.50;99.90;;;;;;5064794;28;20378;-65
2022/08/21 10:08:46;;;;;;;9.70;2.90;;;21.50;99.90;;;;;;5081949;28;20469;-65
2022/08/21 10:11:15;;;;;;;6.77;3.00;;;21.60;99.90;;;;;;5063820;28;20488;-65
2022/08/21 10:13:51;;;;;;;9.30;2.85;;;21.70;99.90;;;;;;5062950;28;20482;-65
2022/08/21 10:16:29;;;;;;;9.35;3.30;;;21.70;99.90;;;;;;5080401;28;20382;-65
2022/08/21 10:19:21;;;;;;;7.65;2.92;;;21.70;99.90;;;;;;5063989;28;20766;-65
2022/08/21 10:22:19;;;;;;;10.82;2.95;;;21.60;99.90;;;;;;5078642;28;20684;-65
2022/08/21 10:24:54;;;;;;;7.23;2.80;;;21.60;99.90;;;;;;5059665;28;20381;-65
2022/08/21 10:27:42;;;;;;;5.22;2.50;;;21.60;99.90;;;;;;5065828;28;20475;-65
2022/08/21 10:30:32;;;;;;;5.10;2.28;;;21.70;99.90;;;;;;5066622;28;20459;-65
2022/08/21 10:33:23;;;;;;;6.70;2.60;;;21.80;99.90;;;;;;5067379;28;20378;-65
2022/08/21 10:36:26;;;;;;;6.40;2.30;;;21.90;99.90;;;;;;5068673;28;20431;-65
2022/08/21 10:39:04;;;;;;;7.00;2.60;;;21.90;99.90;;;;;;5068950;28;20658;-65
2022/08/21 10:41:42;;;;;;;5.72;2.40;;;22.00;99.90;;;;;;5070897;28;20405;-65
2022/08/21 10:44:21;;;;;;;5.18;2.30;;;22.00;99.90;;;;;;5069158;28;20382;-65
2022/08/21 10:47:03;;;;;;;7.65;3.00;;;22.00;99.90;;;;;;5067159;28;20393;-65
2022/08/21 10:49:41;;;;;;;6.78;2.67;;;22.10;99.90;;;;;;5069074;28;20390;-65
2022/08/21 10:52:15;;;;;;;5.28;2.40;;;22.10;99.90;;;;;;5069738;28;20390;-65
2022/08/21 10:54:56;;;;;;;7.45;2.45;;;22.10;99.90;;;;;;5064055;28;20389;-66
2022/08/21 10:57:48;;;;;;;6.65;2.22;;;22.10;99.90;;;;;;5061664;28;21042;-66
2022/08/21 11:00:19;;;;;;;6.90;2.15;;;22.10;99.90;;;;;;5049675;28;21003;-66
2022/08/21 11:02:55;;;;;;;4.53;2.00;;;22.10;99.90;;;;;;5060045;28;20382;-66
2022/08/21 11:05:47;;;;;;;5.03;2.10;;;22.30;99.90;;;;;;5060203;28;20752;-65
2022/08/21 11:08:41;;;;;;;5.82;2.40;;;22.40;99.90;;;;;;5057890;28;20744;-65
2022/08/21 11:11:20;;;;;;;7.00;2.05;;;22.50;99.90;;;;;;5050490;28;20658;-65
2022/08/21 11:14:00;;;;;;;4.95;2.17;;;22.60;99.90;;;;;;5059622;28;20488;-65
2022/08/21 11:16:37;;;;;;;4.63;2.07;;;22.90;99.90;;;;;;5057564;28;21023;-66
2022/08/21 11:19:33;;;;;;;6.90;2.30;;;23.10;99.90;;;;;;5057034;28;20824;-65
2022/08/21 11:22:27;;;;;;;4.25;2.00;;;23.20;99.90;;;;;;5056722;28;20425;-65
2022/08/21 11:25:29;;;;;;;3.97;2.20;;;23.20;99.90;;;;;;5075457;28;20651;-66
2022/08/21 11:28:09;;;;;;;4.20;1.98;;;23.00;99.90;;;;;;5055502;28;20797;-65
2022/08/21 11:30:44;;;;;;;4.53;2.10;;;22.90;99.90;;;;;;5055399;28;20769;-65
2022/08/21 11:33:41;;;;;;;4.90;2.28;;;23.10;99.90;;;;;;5053583;28;21106;-65
2022/08/21 11:36:25;;;;;;;3.55;1.70;;;23.30;99.90;;;;;;5075071;28;20473;-65
2022/08/21 11:39:20;;;;;;;2.80;1.55;;;23.80;99.90;;;;;;5073929;28;20689;-66
2022/08/21 11:41:58;;;;;;;3.22;2.03;;;24.00;99.90;;;;;;5025856;28;20506;-66
2022/08/21 11:44:36;;;;;;;2.70;1.67;;;24.20;99.90;;;;;;5075212;28;20386;-65
2022/08/21 11:47:33;;;;;;;4.97;1.80;;;24.20;99.90;;;;;;5058198;28;20682;-65
2022/08/21 11:50:14;;;;;;;4.78;2.28;;;24.40;99.90;;;;;;5056949;28;20385;-65
2022/08/21 11:53:09;;;;;;;3.65;1.63;;;24.70;99.90;;;;;;5077209;28;20386;-65
2022/08/21 11:55:52;;;;;;;3.20;1.93;;;24.80;99.90;;;;;;5057319;28;20413;-66
2022/08/21 11:58:25;;;;;;;4.88;2.13;;;25.00;99.90;;;;;;5054860;28;20394;-65
2022/08/21 12:00:59;;;;;;;5.78;2.80;;;25.00;99.90;;;;;;5055801;28;20648;-66
2022/08/21 12:03:32;;;;;;;3.55;1.52;;;25.20;99.90;;;;;;5057369;28;20382;-66
2022/08/21 12:06:01;;;;;;;3.50;1.58;;;25.30;99.90;;;;;;5055069;28;20409;-66
2022/08/21 12:08:34;;;;;;;5.17;1.70;;;25.30;99.90;;;;;;5040170;28;20406;-66
2022/08/21 12:11:07;;;;;;;3.58;1.50;;;25.30;99.90;;;;;;5076446;28;20378;-66
2022/08/21 12:13:39;;;;;;;4.00;1.48;;;25.00;99.90;;;;;;5060555;28;20646;-66
2022/08/21 12:16:27;;;;;;;4.28;1.85;;;25.10;99.90;;;;;;5058878;28;20386;-66
2022/08/21 12:19:07;;;;;;;3.00;1.48;;;25.00;99.90;;;;;;5058776;28;20591;-66
2022/08/21 12:21:46;;;;;;;2.90;1.50;;;25.00;99.90;;;;;;5056261;28;20406;-66
2022/08/21 12:24:16;;;;;;;4.75;1.70;;;25.30;99.90;;;;;;5075605;28;20393;-66
2022/08/21 12:26:53;;;;;;;3.92;1.50;;;25.50;99.90;;;;;;5056044;28;20646;-66
2022/08/21 12:29:29;;;;;;;3.60;1.92;;;25.60;99.90;;;;;;5057513;28;20378;-66
2022/08/21 12:32:18;;;;;;;4.00;1.50;;;25.80;99.90;;;;;;5057567;28;20526;-66
2022/08/21 12:34:53;;;;;;;2.50;1.70;;;25.80;99.90;;;;;;5060231;28;20453;-65
2022/08/21 12:37:37;;;;;;;3.60;1.55;;;26.00;99.90;;;;;;5060291;28;20594;-65
2022/08/21 12:40:30;;;;;;;2.90;1.52;;;25.80;99.90;;;;;;5078808;28;20973;-67
2022/08/21 12:43:00;;;;;;;2.60;1.63;;;26.00;99.90;;;;;;5079957;28;20953;-65
2022/08/21 12:45:33;;;;;;;3.33;1.67;;;25.50;99.90;;;;;;5078449;28;20449;-65
2022/08/21 12:48:22;;;;;;;2.78;1.70;;;25.50;99.90;;;;;;5062758;28;20565;-65
2022/08/21 12:51:05;;;;;;;3.33;1.95;;;25.80;99.90;;;;;;5062219;28;20477;-65
2022/08/21 12:53:38;;;;;;;4.35;1.90;;;26.10;99.90;;;;;;5063670;28;20432;-66
2022/08/21 12:56:09;;;;;;;3.33;1.50;;;26.30;99.90;;;;;;5064157;28;20605;-65
2022/08/21 12:58:35;;;;;;;4.45;1.60;;;26.80;99.90;;;;;;5066529;28;20373;-66
2022/08/21 13:01:24;;;;;;;3.73;1.57;;;26.80;99.90;;;;;;5067194;28;20429;-65
2022/08/21 13:03:52;;;;;;;4.18;1.58;;;26.60;99.90;;;;;;5066371;28;20806;-66
2022/08/21 13:06:20;;;;;;;2.27;1.20;;;26.70;99.90;;;;;;5063260;28;20381;-65
2022/08/21 13:08:47;;;;;;;2.43;1.30;;;26.90;99.90;;;;;;5082379;28;20390;-66
2022/08/21 13:11:18;;;;;;;3.10;1.50;;;27.00;99.90;;;;;;5064902;28;20381;-66